Time;durP1;ratioP1;P1;durP2;ratioP2;P2;SDS_P1;SDS_P2;PMS_P1;PMS_P2;Temp;Humidity;BMP_temperature;BMP_pressure;BME280_temperature;BME280_humidity;BME280_pressure;Samples;Min_cycle;Max_cycle;Signal;HPM_P1;HPM_P2
2022/10/24 00:02:13;;;;;;;;;;;13.90;99.90;;;;;;5076656;28;19931;-86
2022/10/24 00:04:39;;;;;;;;;;;14.00;99.90;;;;;;5074442;28;19920;-86
2022/10/24 00:07:05;;;;;;;;;;;14.20;99.90;;;;;;5075032;28;20391;-86
2022/10/24 00:09:31;;;;;;;;;;;14.00;99.90;;;;;;5074793;28;20380;-87
2022/10/24 00:11:57;;;;;;;;;;;13.90;99.90;;;;;;5074338;28;20360;-86
2022/10/24 00:14:23;;;;;;;;;;;13.90;99.90;;;;;;5080059;28;19977;-86
2022/10/24 00:16:48;;;;;;;;;;;13.90;99.90;;;;;;5075382;28;19920;-87
2022/10/24 00:19:14;;;;;;;;;;;13.80;99.90;;;;;;5077141;28;19956;-87
2022/10/24 00:21:39;;;;;;;;;;;13.90;99.90;;;;;;5078358;28;19920;-87
2022/10/24 00:24:05;;;;;;;;;;;14.00;99.90;;;;;;5077635;28;19924;-85
2022/10/24 00:26:31;;;;;;;;;;;14.00;99.90;;;;;;5075715;28;19928;-86
2022/10/24 00:28:57;;;;;;;;;;;14.00;99.90;;;;;;5074884;28;19921;-85
2022/10/24 00:31:23;;;;;;;;;;;13.90;99.90;;;;;;5074984;28;19920;-85
2022/10/24 00:33:48;;;;;;;;;;;13.90;99.90;;;;;;5077389;28;19920;-85
2022/10/24 00:36:15;;;;;;;;;;;13.90;99.90;;;;;;5073929;28;19927;-85
2022/10/24 00:38:41;;;;;;;;;;;13.90;99.90;;;;;;5073866;28;19957;-85
2022/10/24 00:41:06;;;;;;;;;;;14.00;99.90;;;;;;5074510;28;19927;-85
2022/10/24 00:43:32;;;;;;;;;;;13.80;99.90;;;;;;5074340;28;19959;-87
2022/10/24 00:45:58;;;;;;;;;;;13.80;99.90;;;;;;5077031;28;19927;-86
2022/10/24 00:48:33;;;;;;;;;;;13.90;99.90;;;;;;5075511;28;19920;-85
2022/10/24 00:51:04;;;;;;;;;;;13.90;99.90;;;;;;5062232;28;19920;-86
2022/10/24 00:53:33;;;;;;;;;;;13.90;99.90;;;;;;5098039;28;19928;-87
2022/10/24 00:56:00;;;;;;;;;;;13.90;99.90;;;;;;5067837;28;20407;-85
2022/10/24 00:58:27;;;;;;;;;;;13.80;99.90;;;;;;5073548;28;19924;-85
2022/10/24 01:00:53;;;;;;;;;;;13.80;99.90;;;;;;5064569;28;20459;-84
2022/10/24 01:03:22;;;;;;;;;;;14.20;99.90;;;;;;5074855;28;19971;-85
2022/10/24 01:06:04;;;;;;;;;;;13.90;99.90;;;;;;5075811;28;19951;-84
2022/10/24 01:08:39;;;;;;;;;;;13.90;99.90;;;;;;5070934;28;20336;-84
2022/10/24 01:11:12;;;;;;;;;;;13.90;99.90;;;;;;5056407;28;19928;-83
2022/10/24 01:13:43;;;;;;;;;;;13.90;99.90;;;;;;5058459;28;19924;-85
2022/10/24 01:16:17;;;;;;;;;;;13.90;99.90;;;;;;5054095;28;19920;-84
2022/10/24 01:18:51;;;;;;;;;;;13.80;99.90;;;;;;5074286;28;20291;-85
2022/10/24 01:21:29;;;;;;;;;;;13.90;99.90;;;;;;5073597;28;19928;-85
2022/10/24 01:23:55;;;;;;;;;;;14.00;99.90;;;;;;5075763;28;19917;-86
2022/10/24 01:26:34;;;;;;;;;;;13.90;99.90;;;;;;5074611;28;19920;-84
2022/10/24 01:29:05;;;;;;;;;;;13.90;99.90;;;;;;5053220;28;19923;-86
2022/10/24 01:31:37;;;;;;;;;;;14.00;99.90;;;;;;5056363;28;19920;-86
2022/10/24 01:34:07;;;;;;;;;;;14.20;99.90;;;;;;5075559;28;20287;-87
2022/10/24 01:36:38;;;;;;;;;;;14.30;99.90;;;;;;5072874;28;20375;-85
2022/10/24 01:39:07;;;;;;;;;;;14.40;99.90;;;;;;5056137;28;20057;-87
2022/10/24 01:41:33;;;;;;;;;;;14.40;99.90;;;;;;5073737;28;19989;-86
2022/10/24 01:44:05;;;;;;;;;;;14.50;99.90;;;;;;5073655;28;20398;-87
2022/10/24 01:46:39;;;;;;;;;;;14.50;99.90;;;;;;5055612;28;19920;-86
2022/10/24 01:49:14;;;;;;;;;;;14.50;99.90;;;;;;5055859;28;19928;-86
2022/10/24 01:51:40;;;;;;;;;;;14.60;99.90;;;;;;5074612;28;19928;-87
2022/10/24 01:54:07;;;;;;;;;;;14.80;99.90;;;;;;5056084;28;19924;-86
2022/10/24 01:56:33;;;;;;;;;;;14.80;99.90;;;;;;5054413;28;19981;-86
2022/10/24 01:59:24;;;;;;;;;;;14.70;99.90;;;;;;5073167;28;19921;-87
2022/10/24 02:01:51;;;;;;;;;;;14.80;99.90;;;;;;5046489;28;20027;-87
2022/10/24 02:04:17;;;;;;;;;;;14.80;99.90;;;;;;5072359;28;20016;-87
2022/10/24 02:06:43;;;;;;;;;;;14.90;99.90;;;;;;5080458;28;19972;-87
2022/10/24 02:09:15;;;;;;;;;;;15.00;99.90;;;;;;5047326;28;19925;-87
2022/10/24 02:11:40;;;;;;;;;;;14.90;99.90;;;;;;5056445;28;19983;-86
2022/10/24 02:14:13;;;;;;;;;;;15.10;99.90;;;;;;5055450;28;19921;-86
2022/10/24 02:16:38;;;;;;;;;;;15.00;99.90;;;;;;5072370;28;20441;-87
2022/10/24 02:19:04;;;;;;;;;;;15.10;99.90;;;;;;5058744;28;19928;-87
2022/10/24 02:21:34;;;;;;;;;;;15.10;99.90;;;;;;5054590;28;20343;-87
2022/10/24 02:24:02;;;;;;;;;;;15.00;99.90;;;;;;5073150;28;19928;-87
2022/10/24 02:26:45;;;;;;;;;;;15.00;99.90;;;;;;5072267;28;20005;-86
2022/10/24 02:29:12;;;;;;;;;;;15.20;99.90;;;;;;5061067;28;19921;-86
2022/10/24 02:31:39;;;;;;;;;;;15.10;99.90;;;;;;5063707;28;19924;-85
2022/10/24 02:34:06;;;;;;;;;;;15.10;99.90;;;;;;5075034;28;20319;-87
2022/10/24 02:36:38;;;;;;;;;;;15.10;99.90;;;;;;5055270;28;19929;-86
2022/10/24 02:39:05;;;;;;;;;;;15.10;99.90;;;;;;5072850;28;19965;-86
2022/10/24 02:41:34;;;;;;;;;;;15.10;99.90;;;;;;5072442;28;19928;-86
2022/10/24 02:44:00;;;;;;;;;;;15.10;99.90;;;;;;5073194;28;19925;-86
2022/10/24 02:46:30;;;;;;;;;;;15.10;99.90;;;;;;5071523;28;19920;-86
2022/10/24 02:48:57;;;;;;;;;;;15.30;99.90;;;;;;5055926;28;19928;-86
2022/10/24 02:51:25;;;;;;;;;;;15.00;99.90;;;;;;5071871;28;19927;-85
2022/10/24 02:53:51;;;;;;;;;;;15.00;99.90;;;;;;5072002;28;19920;-87
2022/10/24 02:56:16;;;;;;;;;;;14.90;99.90;;;;;;5057521;28;19924;-86
2022/10/24 02:58:42;;;;;;;;;;;15.10;99.90;;;;;;5054983;28;20003;-86
2022/10/24 03:01:07;;;;;;;;;;;15.00;99.90;;;;;;5072178;28;20367;-87
2022/10/24 03:03:33;;;;;;;;;;;15.00;99.90;;;;;;5060443;28;20364;-85
2022/10/24 03:05:58;;;;;;;;;;;14.90;99.90;;;;;;5073587;28;20271;-86
2022/10/24 03:08:24;;;;;;;;;;;15.00;99.90;;;;;;5070515;28;19921;-85
2022/10/24 03:10:49;;;;;;;;;;;15.10;99.90;;;;;;5073989;28;19920;-84
2022/10/24 03:13:15;;;;;;;;;;;15.00;99.90;;;;;;5078457;28;19924;-85
2022/10/24 03:15:41;;;;;;;;;;;15.20;99.90;;;;;;5072657;28;19920;-86
2022/10/24 03:18:06;;;;;;;;;;;15.20;99.90;;;;;;5065440;28;19920;-86
2022/10/24 03:20:32;;;;;;;;;;;15.20;99.90;;;;;;5073680;28;19920;-85
2022/10/24 03:22:57;;;;;;;;;;;15.30;99.90;;;;;;5074953;28;20303;-87
2022/10/24 03:25:23;;;;;;;;;;;15.30;99.90;;;;;;5074573;28;19936;-86
2022/10/24 03:27:49;;;;;;;;;;;15.30;99.90;;;;;;5072729;28;19924;-87
2022/10/24 03:30:14;;;;;;;;;;;15.30;99.90;;;;;;5076155;28;19920;-87
2022/10/24 03:32:40;;;;;;;;;;;15.20;99.90;;;;;;5074463;28;19966;-86
2022/10/24 03:35:05;;;;;;;;;;;15.20;99.90;;;;;;5086040;28;19924;-86
2022/10/24 03:37:31;;;;;;;;;;;15.30;99.90;;;;;;5074666;28;19921;-87
2022/10/24 03:40:00;;;;;;;;;;;15.30;99.90;;;;;;5075968;28;19920;-84
2022/10/24 03:42:25;;;;;;;;;;;15.20;99.90;;;;;;5073612;28;20019;-86
2022/10/24 03:44:51;;;;;;;;;;;15.20;99.90;;;;;;5075202;28;20380;-86
2022/10/24 03:47:16;;;;;;;;;;;15.10;99.90;;;;;;5076232;28;20295;-85
2022/10/24 03:49:42;;;;;;;;;;;15.10;99.90;;;;;;5078794;28;19943;-86
2022/10/24 03:52:07;;;;;;;;;;;15.20;99.90;;;;;;5075821;28;19920;-87
2022/10/24 03:54:34;;;;;;;;;;;15.20;99.90;;;;;;5075567;28;20407;-86
2022/10/24 03:56:59;;;;;;;;;;;15.20;99.90;;;;;;5076665;28;19924;-86
2022/10/24 03:59:25;;;;;;;;;;;15.20;99.90;;;;;;5075224;28;20334;-86
2022/10/24 04:01:51;;;;;;;;;;;15.10;99.90;;;;;;5081154;28;19927;-85
2022/10/24 04:04:16;;;;;;;;;;;15.10;99.90;;;;;;5082173;28;19921;-85
2022/10/24 04:06:42;;;;;;;;;;;15.10;99.90;;;;;;5081548;28;20347;-86
2022/10/24 04:09:07;;;;;;;;;;;15.20;99.90;;;;;;5082321;28;19943;-86
2022/10/24 04:11:33;;;;;;;;;;;15.10;99.90;;;;;;5084285;28;19920;-86
2022/10/24 04:13:59;;;;;;;;;;;15.10;99.90;;;;;;5083120;28;19928;-87
2022/10/24 04:16:25;;;;;;;;;;;15.10;99.90;;;;;;5082460;28;19959;-86
2022/10/24 04:18:51;;;;;;;;;;;15.10;99.90;;;;;;5080648;28;19920;-87
2022/10/24 04:21:17;;;;;;;;;;;15.00;99.90;;;;;;5080433;28;20156;-86
2022/10/24 04:23:43;;;;;;;;;;;15.00;99.90;;;;;;5092314;28;19966;-85
2022/10/24 04:26:10;;;;;;;;;;;14.90;99.90;;;;;;5074589;28;20368;-87
2022/10/24 04:28:36;;;;;;;;;;;14.80;99.90;;;;;;5074134;28;19970;-87
2022/10/24 04:31:01;;;;;;;;;;;14.80;99.90;;;;;;5076016;28;19928;-85
2022/10/24 04:33:27;;;;;;;;;;;14.90;99.90;;;;;;5073645;28;19920;-84
2022/10/24 04:35:52;;;;;;;;;;;15.20;99.90;;;;;;5076025;28;19916;-87
2022/10/24 04:38:18;;;;;;;;;;;14.80;99.90;;;;;;5072351;28;20006;-85
2022/10/24 04:40:44;;;;;;;;;;;14.90;99.90;;;;;;5076139;28;19928;-86
2022/10/24 04:43:09;;;;;;;;;;;15.00;99.90;;;;;;5073166;28;19920;-85
2022/10/24 04:45:38;;;;;;;;;;;14.90;99.90;;;;;;5073642;28;19924;-84
2022/10/24 04:48:06;;;;;;;;;;;15.00;99.90;;;;;;5072940;28;19920;-85
2022/10/24 04:50:32;;;;;;;;;;;15.00;99.90;;;;;;5075744;28;20299;-85
2022/10/24 04:52:57;;;;;;;;;;;15.00;99.90;;;;;;5070779;28;20025;-84
2022/10/24 04:55:23;;;;;;;;;;;15.10;99.90;;;;;;5073321;28;19920;-75
2022/10/24 04:57:49;;;;;;;;;;;15.10;99.90;;;;;;5072137;28;19920;-77
2022/10/24 05:00:14;;;;;;;;;;;15.00;99.90;;;;;;5072573;28;19964;-78
2022/10/24 05:02:40;;;;;;;;;;;15.10;99.90;;;;;;5071864;28;20014;-85
2022/10/24 05:05:05;;;;;;;;;;;15.10;99.90;;;;;;5074511;28;19947;-82
2022/10/24 05:07:32;;;;;;;;;;;15.10;99.90;;;;;;5071004;28;19959;-74
2022/10/24 05:09:57;;;;;;;;;;;15.10;99.90;;;;;;5068924;28;19931;-78
2022/10/24 05:12:23;;;;;;;;;;;15.10;99.90;;;;;;5071585;28;19920;-81
2022/10/24 05:14:48;;;;;;;;;;;15.20;99.90;;;;;;5072322;28;19920;-79
2022/10/24 05:17:14;;;;;;;;;;;15.20;99.90;;;;;;5072574;28;19931;-77
2022/10/24 05:19:39;;;;;;;;;;;15.30;99.90;;;;;;5071588;28;19958;-76
2022/10/24 05:22:14;;;;;;;;;;;15.30;99.90;;;;;;5071175;28;19990;-76
2022/10/24 05:24:40;;;;;;;;;;;15.20;99.90;;;;;;5069341;28;19916;-77
2022/10/24 05:27:05;;;;;;;;;;;15.20;99.90;;;;;;5074191;28;19924;-80
2022/10/24 05:29:37;;;;;;;;;;;15.30;99.90;;;;;;5070406;28;19967;-76
2022/10/24 05:32:03;;;;;;;;;;;15.30;99.90;;;;;;5072856;28;19931;-72
2022/10/24 05:34:28;;;;;;;;;;;15.40;99.90;;;;;;5073266;28;19928;-75
2022/10/24 05:36:54;;;;;;;;;;;15.30;99.90;;;;;;5072221;28;19923;-74
2022/10/24 05:39:19;;;;;;;;;;;15.40;99.90;;;;;;5071353;28;19925;-74
2022/10/24 05:41:45;;;;;;;;;;;15.30;99.90;;;;;;5070610;28;19924;-74
2022/10/24 05:44:12;;;;;;;;;;;15.30;99.90;;;;;;5070378;28;19927;-74
2022/10/24 05:46:37;;;;;;;;;;;15.20;99.90;;;;;;5073894;28;20025;-75
2022/10/24 05:49:03;;;;;;;;;;;15.30;99.90;;;;;;5070243;28;20435;-75
2022/10/24 05:51:28;;;;;;;;;;;15.20;99.90;;;;;;5068773;28;20300;-74
2022/10/24 05:53:54;;;;;;;;;;;15.10;99.90;;;;;;5068957;28;20291;-74
2022/10/24 05:56:19;;;;;;;;;;;15.10;99.90;;;;;;5069310;28;19921;-73
2022/10/24 05:58:45;;;;;;;;;;;15.10;99.90;;;;;;5070247;28;19947;-75
2022/10/24 06:01:10;;;;;;;;;;;15.00;99.90;;;;;;5071282;28;20167;-75
2022/10/24 06:03:36;;;;;;;;;;;15.00;99.90;;;;;;5068629;28;19970;-75
2022/10/24 06:06:02;;;;;;;;;;;15.00;99.90;;;;;;5070355;28;20356;-75
2022/10/24 06:08:32;;;;;;;;;;;14.80;99.90;;;;;;5070079;28;20292;-75
2022/10/24 06:10:57;;;;;;;;;;;14.90;99.90;;;;;;5069479;28;19921;-75
2022/10/24 06:13:23;;;;;;;;;;;14.80;99.90;;;;;;5053045;28;19966;-75
2022/10/24 06:15:48;;;;;;;;;;;14.80;99.90;;;;;;5073759;28;19977;-75
2022/10/24 06:18:14;;;;;;;;;;;14.80;99.90;;;;;;5051820;28;19920;-75
2022/10/24 06:20:39;;;;;;;;;;;14.90;99.90;;;;;;5070228;28;20295;-75
2022/10/24 06:23:05;;;;;;;;;;;15.00;99.90;;;;;;5053784;28;20021;-75
2022/10/24 06:25:31;;;;;;;;;;;14.90;99.90;;;;;;5075205;28;19966;-74
2022/10/24 06:27:56;;;;;;;;;;;14.90;99.90;;;;;;5053977;28;19968;-74
2022/10/24 06:30:22;;;;;;;;;;;15.10;99.90;;;;;;5074402;28;19928;-76
2022/10/24 06:32:47;;;;;;;;;;;15.10;99.90;;;;;;5071125;28;19927;-75
2022/10/24 06:35:14;;;;;;;;;;;15.00;99.90;;;;;;5059693;28;19943;-76
2022/10/24 06:37:40;;;;;;;;;;;15.00;99.90;;;;;;5072953;28;19920;-74
2022/10/24 06:40:06;;;;;;;;;;;15.00;99.90;;;;;;5071968;28;20379;-75
2022/10/24 06:42:32;;;;;;;;;;;15.10;99.90;;;;;;5071732;28;19921;-76
2022/10/24 06:44:57;;;;;;;;;;;15.10;99.90;;;;;;5059796;28;19927;-74
2022/10/24 06:47:23;;;;;;;;;;;15.10;99.90;;;;;;5071376;28;19917;-73
2022/10/24 06:49:48;;;;;;;;;;;15.20;99.90;;;;;;5071429;28;19924;-75
2022/10/24 06:52:14;;;;;;;;;;;15.30;99.90;;;;;;5053394;28;20319;-75
2022/10/24 06:54:40;;;;;;;;;;;15.40;99.90;;;;;;5057235;28;20371;-74
2022/10/24 06:57:06;;;;;;;;;;;15.40;99.90;;;;;;5071741;28;20347;-74
2022/10/24 06:59:34;;;;;;;;;;;15.40;99.90;;;;;;5070794;28;20354;-74
2022/10/24 07:01:59;;;;;;;;;;;15.40;99.90;;;;;;5070641;28;19921;-74
2022/10/24 07:04:26;;;;;;;;;;;15.40;99.90;;;;;;5050078;28;20019;-74
2022/10/24 07:06:54;;;;;;;;;;;15.40;99.90;;;;;;5070853;28;20342;-75
2022/10/24 07:09:20;;;;;;;;;;;15.50;99.90;;;;;;5055245;28;19924;-74
2022/10/24 07:11:46;;;;;;;;;;;15.50;99.90;;;;;;5071436;28;20003;-74
2022/10/24 07:14:11;;;;;;;;;;;15.50;99.90;;;;;;5075927;28;19920;-74
2022/10/24 07:16:37;;;;;;;;;;;15.60;99.90;;;;;;5075712;28;19928;-74
2022/10/24 07:19:03;;;;;;;;;;;15.70;99.90;;;;;;5072941;28;20386;-76
2022/10/24 07:21:29;;;;;;;;;;;15.80;99.90;;;;;;5077114;28;19925;-77
2022/10/24 07:23:55;;;;;;;;;;;15.70;99.90;;;;;;5075790;28;19920;-77
2022/10/24 07:26:23;;;;;;;;;;;15.70;99.90;;;;;;5060961;28;20388;-78
2022/10/24 07:28:53;;;;;;;;;;;15.80;99.90;;;;;;5073692;28;19921;-81
2022/10/24 07:31:20;;;;;;;;;;;15.90;99.90;;;;;;5072670;28;20523;-78
2022/10/24 07:33:45;;;;;;;;;;;15.90;99.90;;;;;;5057963;28;19920;-74
2022/10/24 07:36:15;;;;;;;;;;;15.80;99.90;;;;;;5075878;28;20402;-88
2022/10/24 07:38:44;;;;;;;;;;;15.80;99.90;;;;;;5056412;28;19920;-88
2022/10/24 07:41:09;;;;;;;;;;;15.80;99.90;;;;;;5056515;28;20026;-76
2022/10/24 07:43:35;;;;;;;;;;;15.90;99.90;;;;;;5060696;28;20023;-77
2022/10/24 07:46:07;;;;;;;;;;;15.90;99.90;;;;;;5056416;28;19971;-76
2022/10/24 07:48:33;;;;;;;;;;;16.00;99.90;;;;;;5073564;28;19970;-75
2022/10/24 07:50:58;;;;;;;;;;;16.10;99.90;;;;;;5074932;28;19968;-73
2022/10/24 07:53:26;;;;;;;;;;;16.00;99.90;;;;;;5057227;28;20308;-75
2022/10/24 07:55:53;;;;;;;;;;;16.20;99.90;;;;;;5074274;28;20014;-75
2022/10/24 07:58:18;;;;;;;;;;;16.10;99.90;;;;;;5074412;28;19920;-75
2022/10/24 08:00:46;;;;;;;;;;;16.20;99.90;;;;;;5056712;28;19924;-75
2022/10/24 08:03:12;;;;;;;;;;;16.10;99.90;;;;;;5056274;28;19926;-76
2022/10/24 08:05:41;;;;;;;;;;;16.00;99.90;;;;;;5074314;28;20259;-75
2022/10/24 08:08:06;;;;;;;;;;;16.00;99.90;;;;;;5069327;28;19936;-78
2022/10/24 08:10:32;;;;;;;;;;;16.10;99.90;;;;;;5075886;28;19920;-75
2022/10/24 08:12:58;;;;;;;;;;;16.70;99.90;;;;;;5074705;28;19920;-76
2022/10/24 08:15:26;;;;;;;;;;;17.10;99.90;;;;;;5073938;28;20295;-78
2022/10/24 08:17:52;;;;;;;;;;;17.10;99.90;;;;;;5073769;28;19931;-79
2022/10/24 08:20:18;;;;;;;;;;;17.30;99.90;;;;;;5076416;28;19928;-81
2022/10/24 08:22:44;;;;;;;;;;;17.50;99.90;;;;;;5075621;28;20295;-83
2022/10/24 08:25:10;;;;;;;;;;;17.60;99.90;;;;;;5065852;28;19921;-78
2022/10/24 08:27:36;;;;;;;;;;;17.40;99.90;;;;;;5061048;28;19924;-82
2022/10/24 08:30:08;;;;;;;;;;;17.60;99.90;;;;;;5066267;28;19931;-79
2022/10/24 08:32:34;;;;;;;;;;;17.90;99.90;;;;;;5076099;28;19921;-80
2022/10/24 08:35:00;;;;;;;;;;;18.60;99.90;;;;;;5073222;28;20386;-81
2022/10/24 08:37:25;;;;;;;;;;;18.70;99.90;;;;;;5071795;28;19924;-79
2022/10/24 08:39:54;;;;;;;;;;;19.00;99.90;;;;;;5072453;28;20277;-82
2022/10/24 08:42:21;;;;;;;;;;;19.20;99.90;;;;;;5071171;28;20007;-81
2022/10/24 08:44:46;;;;;;;;;;;19.60;99.90;;;;;;5074212;28;19963;-80
2022/10/24 08:47:12;;;;;;;;;;;19.60;99.90;;;;;;5072893;28;20344;-82
2022/10/24 08:49:56;;;;;;;;;;;19.80;99.90;;;;;;5074858;28;19920;-73
2022/10/24 08:52:37;;;;;;;;;;;19.50;99.90;;;;;;5097333;28;20422;-74
2022/10/24 08:55:08;;;;;;;;;;;19.20;99.90;;;;;;5072700;28;19920;-75
2022/10/24 08:57:36;;;;;;;;;;;19.90;99.90;;;;;;5097995;28;20058;-73
2022/10/24 09:00:07;;;;;;;;;;;18.50;99.90;;;;;;5071101;28;20386;-74
2022/10/24 09:02:36;;;;;;;;;;;18.10;99.90;;;;;;5071899;28;20372;-72
2022/10/24 09:05:22;;;;;;;;;;;17.70;99.90;;;;;;5073526;28;19970;-70
2022/10/24 09:07:51;;;;;;;;;;;17.20;99.90;;;;;;5071328;28;19986;-69
2022/10/24 09:10:21;;;;;;;;;;;17.00;99.90;;;;;;5073405;28;20399;-70
2022/10/24 09:12:47;;;;;;;;;;;16.50;99.90;;;;;;5072639;28;19920;-71
2022/10/24 09:15:19;;;;;;;;;;;16.30;99.90;;;;;;5077435;28;20292;-70
2022/10/24 09:17:49;;;;;;;;;;;16.10;99.90;;;;;;5074896;28;19921;-69
2022/10/24 09:20:20;;;;;;;;;;;15.90;99.90;;;;;;5072453;28;19931;-69
2022/10/24 09:22:46;;;;;;;;;;;15.80;99.90;;;;;;5073060;28;20307;-71
2022/10/24 09:25:17;;;;;;;;;;;15.60;99.90;;;;;;5052359;28;19920;-76
2022/10/24 09:27:43;;;;;;;;;;;15.30;99.90;;;;;;5075222;28;20383;-74
2022/10/24 09:30:23;;;;;;;;;;;15.10;99.90;;;;;;5072771;28;19920;-74
2022/10/24 09:32:49;;;;;;;;;;;15.10;99.90;;;;;;5054740;28;19920;-73
2022/10/24 09:35:16;;;;;;;;;;;15.00;99.90;;;;;;5073928;28;20019;-73
2022/10/24 09:37:47;;;;;;;;;;;15.00;99.90;;;;;;5072856;28;19927;-73
2022/10/24 09:40:21;;;;;;;;;;;15.00;99.90;;;;;;5054913;28;20011;-74
2022/10/24 09:42:52;;;;;;;;;;;15.00;99.90;;;;;;5051563;28;19920;-75
2022/10/24 09:45:28;;;;;;;;;;;15.20;99.90;;;;;;5057212;28;19928;-75
2022/10/24 09:47:55;;;;;;;;;;;15.70;99.90;;;;;;5057684;28;20003;-73
2022/10/24 09:50:21;;;;;;;;;;;17.10;99.90;;;;;;5072145;28;19920;-73
2022/10/24 09:52:51;;;;;;;;;;;18.40;99.90;;;;;;5072473;28;19917;-73
2022/10/24 09:55:21;;;;;;;;;;;19.50;99.90;;;;;;5072806;28;19985;-74
2022/10/24 09:57:47;;;;;;;;;;;20.30;99.90;;;;;;5053337;28;19924;-74
2022/10/24 10:00:20;;;;;;;;;;;20.40;99.90;;;;;;5054553;28;20019;-74
2022/10/24 10:03:05;;;;;;;;;;;20.40;99.90;;;;;;5067831;28;20326;-74
2022/10/24 10:05:51;;;;;;;;;;;20.60;99.90;;;;;;5071088;28;19924;-74
2022/10/24 10:08:27;;;;;;;;;;;21.20;99.90;;;;;;5067089;28;20411;-72
2022/10/24 10:11:04;;;;;;;;;;;21.50;99.90;;;;;;5071066;28;20020;-72
2022/10/24 10:13:36;;;;;;;;;;;22.10;99.90;;;;;;5067354;28;19921;-72
2022/10/24 10:16:03;;;;;;;;;;;21.90;99.90;;;;;;5066180;28;19925;-76
2022/10/24 10:18:31;;;;;;;;;;;21.20;99.90;;;;;;5070507;28;19920;-73
2022/10/24 10:21:00;;;;;;;;;;;20.40;99.90;;;;;;5076253;28;19931;-71
2022/10/24 10:23:27;;;;;;;;;;;19.40;99.90;;;;;;5069671;28;19924;-72
2022/10/24 10:26:04;;;;;;;;;;;18.80;99.90;;;;;;5062339;28;20465;-73
2022/10/24 10:28:32;;;;;;;;;;;18.40;99.90;;;;;;5067950;28;19935;-73
2022/10/24 10:30:59;;;;;;;;;;;18.90;99.90;;;;;;5071805;28;20336;-72
2022/10/24 10:33:50;;;;;;;;;;;19.20;99.90;;;;;;5070337;28;19927;-74
2022/10/24 10:36:25;;;;;;;;;;;18.90;99.90;;;;;;5065311;28;19967;-71
2022/10/24 10:38:55;;;;;;;;;;;18.80;99.90;;;;;;5067872;28;19925;-73
2022/10/24 10:41:39;;;;;;;;;;;19.30;99.90;;;;;;5066431;28;19959;-71
2022/10/24 10:44:11;;;;;;;;;;;19.80;99.90;;;;;;5069857;28;19925;-72
2022/10/24 10:46:36;;;;;;;;;;;19.20;99.90;;;;;;5071563;28;20347;-74
2022/10/24 10:49:12;;;;;;;;;;;18.60;99.90;;;;;;5074638;28;19920;-74
2022/10/24 10:51:57;;;;;;;;;;;17.90;99.90;;;;;;5073496;28;20398;-73
2022/10/24 10:54:32;;;;;;;;;;;17.50;99.90;;;;;;5073877;28;19970;-73
2022/10/24 10:57:11;;;;;;;;;;;16.80;99.90;;;;;;5076904;28;20034;-70
2022/10/24 10:59:36;;;;;;;;;;;16.60;99.90;;;;;;5074321;28;19928;-71
2022/10/24 11:02:22;;;;;;;;;;;16.40;99.90;;;;;;5075702;28;20254;-70
2022/10/24 11:04:57;;;;;;;;;;;16.30;99.90;;;;;;5072351;28;20287;-71
2022/10/24 11:07:34;;;;;;;;;;;16.60;99.90;;;;;;5073874;28;19959;-75
2022/10/24 11:10:08;;;;;;;;;;;16.80;99.90;;;;;;5065191;28;19960;-72
2022/10/24 11:12:41;;;;;;;;;;;16.70;99.90;;;;;;5074642;28;19926;-72
2022/10/24 11:15:13;;;;;;;;;;;16.20;99.90;;;;;;5078474;28;20369;-72
2022/10/24 11:17:42;;;;;;;;;;;16.10;99.90;;;;;;5075479;28;19960;-73
2022/10/24 11:20:23;;;;;;;;;;;16.00;99.90;;;;;;5072956;28;19920;-73
2022/10/24 11:22:54;;;;;;;;;;;15.60;99.90;;;;;;5071367;28;19920;-72
2022/10/24 11:25:33;;;;;;;;;;;15.40;99.90;;;;;;5076454;28;20292;-73
2022/10/24 11:27:59;;;;;;;;;;;15.50;99.90;;;;;;5073127;28;20011;-74
2022/10/24 11:30:45;;;;;;;;;;;15.40;99.90;;;;;;5074650;28;20011;-73
2022/10/24 11:33:14;;;;;;;;;;;15.40;99.90;;;;;;5062121;28;19928;-75
2022/10/24 11:35:43;;;;;;;;;;;16.50;99.90;;;;;;5070022;28;20003;-76
2022/10/24 11:38:15;;;;;;;;;;;18.10;99.90;;;;;;5069767;28;20276;-74
2022/10/24 11:40:42;;;;;;;;;;;18.10;99.90;;;;;;5071913;28;19920;-75
2022/10/24 11:43:18;;;;;;;;;;;17.50;99.90;;;;;;5077032;28;20280;-74
2022/10/24 11:45:47;;;;;;;;;;;17.10;99.90;;;;;;5070535;28;19950;-72
2022/10/24 11:48:20;;;;;;;;;;;16.50;99.90;;;;;;5074197;28;19932;-72
2022/10/24 11:50:48;;;;;;;;;;;16.40;99.90;;;;;;5076384;28;19927;-72
2022/10/24 11:53:16;;;;;;;;;;;16.10;99.90;;;;;;5073510;28;19931;-69
2022/10/24 11:55:46;;;;;;;;;;;15.90;99.90;;;;;;5072638;28;20018;-71
2022/10/24 11:58:13;;;;;;;;;;;15.80;99.90;;;;;;5074303;28;19924;-70
2022/10/24 12:00:45;;;;;;;;;;;15.70;99.90;;;;;;5075301;28;19921;-72
2022/10/24 12:03:14;;;;;;;;;;;15.60;99.90;;;;;;5072349;28;20368;-72
2022/10/24 12:05:58;;;;;;;;;;;15.40;99.90;;;;;;5073384;28;19920;-73
2022/10/24 12:08:25;;;;;;;;;;;15.20;99.90;;;;;;5071705;28;19928;-73
2022/10/24 12:10:50;;;;;;;;;;;15.40;99.90;;;;;;5074088;28;20277;-74
2022/10/24 12:13:16;;;;;;;;;;;15.70;99.90;;;;;;5075704;28;20039;-72
2022/10/24 12:15:55;;;;;;;;;;;15.20;99.90;;;;;;5074014;28;19924;-73
2022/10/24 12:18:25;;;;;;;;;;;17.30;99.90;;;;;;5072645;28;19920;-71
2022/10/24 12:20:51;;;;;;;;;;;18.50;99.90;;;;;;5072921;28;19963;-72
2022/10/24 12:23:19;;;;;;;;;;;19.60;99.90;;;;;;5072741;28;20343;-72
2022/10/24 12:25:47;;;;;;;;;;;20.40;99.90;;;;;;5072878;28;20433;-72
2022/10/24 12:28:45;;;;;;;;;;;20.90;99.90;;;;;;5078032;22;19963;-74
2022/10/24 12:31:14;;;;;;;;;;;20.40;99.90;;;;;;5029137;28;19920;-74
2022/10/24 12:33:43;;;;;;;;;;;20.10;99.90;;;;;;5083306;28;19920;-73
2022/10/24 12:36:09;;;;;;;;;;;20.00;99.90;;;;;;5081353;28;19921;-72
2022/10/24 12:38:35;;;;;;;;;;;19.30;99.90;;;;;;5066462;28;19974;-75
2022/10/24 12:41:05;;;;;;;;;;;18.60;99.90;;;;;;5082030;28;20387;-74
2022/10/24 12:43:34;;;;;;;;;;;18.50;99.90;;;;;;5078127;28;19943;-75
2022/10/24 12:46:11;;;;;;;;;;;18.00;99.90;;;;;;5063369;28;19920;-73
2022/10/24 12:48:37;;;;;;;;;;;17.70;99.90;;;;;;5080678;28;20080;-75
2022/10/24 12:51:04;;;;;;;;;;;17.20;99.90;;;;;;5066093;28;19920;-72
2022/10/24 12:53:33;;;;;;;;;;;16.90;99.90;;;;;;5058652;28;19924;-73
2022/10/24 12:55:58;;;;;;;;;;;16.70;99.90;;;;;;5079366;28;19920;-75
2022/10/24 12:58:24;;;;;;;;;;;16.50;99.90;;;;;;5064617;28;19942;-73
2022/10/24 13:00:54;;;;;;;;;;;16.20;99.90;;;;;;5064137;28;20065;-74
2022/10/24 13:03:21;;;;;;;;;;;15.90;99.90;;;;;;5082833;28;19920;-72
2022/10/24 13:05:50;;;;;;;;;;;15.60;99.90;;;;;;5082025;28;19968;-75
2022/10/24 13:08:22;;;;;;;;;;;15.50;99.90;;;;;;5065961;28;20396;-73
2022/10/24 13:10:48;;;;;;;;;;;15.30;99.90;;;;;;5081564;28;19931;-73
2022/10/24 13:13:35;;;;;;;;;;;15.20;99.90;;;;;;5065554;28;20280;-74
2022/10/24 13:16:12;;;;;;;;;;;15.10;99.90;;;;;;5075557;28;19943;-73
2022/10/24 13:18:38;;;;;;;;;;;15.00;99.90;;;;;;5082863;28;20006;-71
2022/10/24 13:21:07;;;;;;;;;;;15.00;99.90;;;;;;5077792;28;19959;-72
2022/10/24 13:23:33;;;;;;;;;;;15.10;99.90;;;;;;5065371;28;19963;-72
2022/10/24 13:25:59;;;;;;;;;;;15.00;99.90;;;;;;5065547;28;19927;-72
2022/10/24 13:28:24;;;;;;;;;;;14.80;99.90;;;;;;5081545;28;19921;-72
2022/10/24 13:30:59;;;;;;;;;;;14.70;99.90;;;;;;5085264;28;20287;-73
2022/10/24 13:33:27;;;;;;;;;;;14.90;99.90;;;;;;5060166;28;19920;-71
2022/10/24 13:35:54;;;;;;;;;;;15.00;99.90;;;;;;5085042;28;19982;-73
2022/10/24 13:38:20;;;;;;;;;;;15.10;99.90;;;;;;5080666;28;20379;-73
2022/10/24 13:40:48;;;;;;;;;;;15.20;99.90;;;;;;5084475;28;19927;-72
2022/10/24 13:43:18;;;;;;;;;;;15.30;99.90;;;;;;5063592;28;20407;-72
2022/10/24 13:45:46;;;;;;;;;;;15.30;99.90;;;;;;5078082;28;20323;-71
2022/10/24 13:48:19;;;;;;;;;;;15.40;99.90;;;;;;5081121;28;19919;-79
2022/10/24 13:50:49;;;;;;;;;;;15.50;99.90;;;;;;5060822;28;20418;-71
2022/10/24 13:53:19;;;;;;;;;;;15.50;99.90;;;;;;5057218;28;19927;-71
2022/10/24 13:55:46;;;;;;;;;;;15.40;99.90;;;;;;5067348;28;19921;-71
2022/10/24 13:58:18;;;;;;;;;;;15.30;99.90;;;;;;5063584;28;20360;-73
2022/10/24 14:00:45;;;;;;;;;;;15.40;99.90;;;;;;5076946;28;19946;-72
2022/10/24 14:03:14;;;;;;;;;;;15.40;99.90;;;;;;5062832;28;20367;-73
2022/10/24 14:05:50;;;;;;;;;;;15.60;99.90;;;;;;5058942;28;19973;-74
2022/10/24 14:08:21;;;;;;;;;;;15.50;99.90;;;;;;5055735;28;19920;-71
2022/10/24 14:10:48;;;;;;;;;;;15.30;99.90;;;;;;5072314;28;19955;-71
2022/10/24 14:13:15;;;;;;;;;;;15.30;99.90;;;;;;5059155;28;19966;-72
2022/10/24 14:15:46;;;;;;;;;;;15.30;99.90;;;;;;5057437;28;19920;-71
2022/10/24 14:18:13;;;;;;;;;;;15.30;99.90;;;;;;5056844;28;20307;-71
2022/10/24 14:20:39;;;;;;;;;;;15.40;99.90;;;;;;5083132;28;19920;-72
2022/10/24 14:23:30;;;;;;;;;;;15.50;99.90;;;;;;5062588;28;20014;-71
2022/10/24 14:26:08;;;;;;;;;;;15.50;99.90;;;;;;5061597;28;19971;-71